Arleta, California
Current Conditions -  °F | °C
As of 9:53 AM on Thursday 18 Dec 2014 (Local Time) from KBUR Reporting Station
Overcast Overcast  
Wind Chill: 55°   Ceiling: 8500
Heat Index: 55°   Visibility: 10mi
Dew Point: 45°   Wind: 0mph
Humidity: 69%   Direction: NA
Pressure: 30.2"   Gusts: NA
Location:  34.2574°N, 118.255°W
Report Text: KBUR 181753Z 00000KT 10SM SCT065 OVC085 13/07 A3020 RMK AO2 SLP220 T01280072 10128 20072 53018
Loading
Personal Weather Stations






























Interactive Weather Map New forecast layout! Learn more

10-Day Weather Forecast

Advertisements
Track Severe Weather on mobile